Terminal Aerodrome Forecast
Issued by NWS

Home | Current Version | Previous Version | Text Only | Print | Product List | Glossary On
Versions: 1 2 3 4 5 6 7 8 9 10 11 12 13 14 15 16 17 18 19 20 21 22 23 24 25 26 27 28
000
FTUS43 KGRR 021423 AAB
TAFAZO
TAF AMD
KAZO 021423Z 0214/0312 VRB03KT 6SM HZ OVC006
     FM021500 06007KT P6SM BKN012
     FM021600 07007KT P6SM BKN040
     FM030100 VRB03KT P6SM SKC=

USA.gov is the U.S. government's official web portal to all federal, state and local government web resources and services.